sensor_id;sensor_type;location;lat;lon;timestamp;pressure;altitude;pressure_sealevel;temperature;humidity
27984;BME280;15317;50.360;8.726;2023-06-14T00:00:53;99195.56;;;16.29;56.47
27984;BME280;15317;50.360;8.726;2023-06-14T00:06:00;99197.78;;;16.12;57.98
27984;BME280;15317;50.360;8.726;2023-06-14T00:11:03;99197.78;;;16.12;55.87
27984;BME280;15317;50.360;8.726;2023-06-14T00:16:06;99203.25;;;16.06;56.41
27984;BME280;15317;50.360;8.726;2023-06-14T00:21:11;99199.63;;;15.99;57.02
27984;BME280;15317;50.360;8.726;2023-06-14T00:26:15;99209.34;;;16.01;55.69
27984;BME280;15317;50.360;8.726;2023-06-14T00:31:19;99205.72;;;15.94;56.68
27984;BME280;15317;50.360;8.726;2023-06-14T00:36:23;99208.31;;;15.74;59.14
27984;BME280;15317;50.360;8.726;2023-06-14T00:41:27;99200.47;;;15.71;57.41
27984;BME280;15317;50.360;8.726;2023-06-14T00:46:31;99204.63;;;15.61;58.20
27984;BME280;15317;50.360;8.726;2023-06-14T00:51:35;99204.38;;;15.56;58.36
27984;BME280;15317;50.360;8.726;2023-06-14T00:56:40;99201.66;;;15.56;57.25
27984;BME280;15317;50.360;8.726;2023-06-14T01:01:43;99211.44;;;15.50;58.73
27984;BME280;15317;50.360;8.726;2023-06-14T01:06:57;99216.00;;;15.64;55.83
27984;BME280;15317;50.360;8.726;2023-06-14T01:12:10;99219.78;;;15.63;56.80
27984;BME280;15317;50.360;8.726;2023-06-14T01:17:17;99217.91;;;15.64;55.70
27984;BME280;15317;50.360;8.726;2023-06-14T01:22:22;99217.06;;;15.63;56.94
27984;BME280;15317;50.360;8.726;2023-06-14T01:27:28;99220.66;;;15.64;55.99
27984;BME280;15317;50.360;8.726;2023-06-14T01:32:31;99213.09;;;15.66;54.47
27984;BME280;15317;50.360;8.726;2023-06-14T01:37:35;99218.13;;;15.62;55.76
27984;BME280;15317;50.360;8.726;2023-06-14T01:42:42;99211.53;;;15.57;56.34
27984;BME280;15317;50.360;8.726;2023-06-14T01:47:47;99207.56;;;15.38;57.10
27984;BME280;15317;50.360;8.726;2023-06-14T01:52:50;99217.59;;;15.31;57.42
27984;BME280;15317;50.360;8.726;2023-06-14T01:57:55;99212.72;;;15.26;56.44
27984;BME280;15317;50.360;8.726;2023-06-14T02:03:01;99199.56;;;15.15;57.93
27984;BME280;15317;50.360;8.726;2023-06-14T02:08:06;99208.56;;;15.09;57.72
27984;BME280;15317;50.360;8.726;2023-06-14T02:13:11;99197.34;;;15.04;57.40
27984;BME280;15317;50.360;8.726;2023-06-14T02:18:14;99208.91;;;14.99;58.26
27984;BME280;15317;50.360;8.726;2023-06-14T02:23:18;99210.78;;;14.99;58.24
27984;BME280;15317;50.360;8.726;2023-06-14T02:28:23;99224.06;;;15.02;57.95
27984;BME280;15317;50.360;8.726;2023-06-14T02:33:27;99224.34;;;15.07;57.80
27984;BME280;15317;50.360;8.726;2023-06-14T02:38:30;99217.78;;;15.08;57.13
27984;BME280;15317;50.360;8.726;2023-06-14T02:43:35;99229.16;;;15.05;57.75
27984;BME280;15317;50.360;8.726;2023-06-14T02:48:39;99238.13;;;14.99;58.50
27984;BME280;15317;50.360;8.726;2023-06-14T02:53:42;99228.88;;;15.00;58.68
27984;BME280;15317;50.360;8.726;2023-06-14T02:58:47;99239.81;;;15.00;58.34
27984;BME280;15317;50.360;8.726;2023-06-14T03:03:50;99245.59;;;14.90;58.83
27984;BME280;15317;50.360;8.726;2023-06-14T03:08:54;99250.34;;;14.82;59.74
27984;BME280;15317;50.360;8.726;2023-06-14T03:14:00;99258.00;;;14.72;59.99
27984;BME280;15317;50.360;8.726;2023-06-14T03:19:05;99259.81;;;14.65;60.16
27984;BME280;15317;50.360;8.726;2023-06-14T03:24:09;99261.63;;;14.57;61.26
27984;BME280;15317;50.360;8.726;2023-06-14T03:29:13;99265.13;;;14.51;61.00
27984;BME280;15317;50.360;8.726;2023-06-14T03:34:16;99271.63;;;14.50;61.47
27984;BME280;15317;50.360;8.726;2023-06-14T03:39:20;99281.50;;;14.51;60.59
27984;BME280;15317;50.360;8.726;2023-06-14T03:44:26;99289.03;;;14.49;61.43
27984;BME280;15317;50.360;8.726;2023-06-14T03:49:30;99290.84;;;14.42;62.96
27984;BME280;15317;50.360;8.726;2023-06-14T03:54:34;99302.16;;;14.39;63.23
27984;BME280;15317;50.360;8.726;2023-06-14T03:59:42;99307.63;;;14.39;63.56
27984;BME280;15317;50.360;8.726;2023-06-14T04:04:45;99311.41;;;14.38;64.07
27984;BME280;15317;50.360;8.726;2023-06-14T04:09:48;99310.69;;;14.36;65.12
27984;BME280;15317;50.360;8.726;2023-06-14T04:14:53;99310.81;;;14.43;63.88
27984;BME280;15317;50.360;8.726;2023-06-14T04:20:06;99322.88;;;14.48;63.40
27984;BME280;15317;50.360;8.726;2023-06-14T04:25:12;99322.50;;;14.51;64.78
27984;BME280;15317;50.360;8.726;2023-06-14T04:30:16;99320.63;;;14.52;64.59
27984;BME280;15317;50.360;8.726;2023-06-14T04:35:19;99331.66;;;14.58;64.85
27984;BME280;15317;50.360;8.726;2023-06-14T04:40:22;99337.66;;;14.69;64.47
27984;BME280;15317;50.360;8.726;2023-06-14T04:45:27;99342.00;;;14.78;64.27
27984;BME280;15317;50.360;8.726;2023-06-14T04:50:33;99351.50;;;14.82;64.36
27984;BME280;15317;50.360;8.726;2023-06-14T04:55:37;99351.59;;;14.88;64.66
27984;BME280;15317;50.360;8.726;2023-06-14T05:00:41;99354.63;;;14.93;64.33
27984;BME280;15317;50.360;8.726;2023-06-14T05:05:45;99353.94;;;14.91;66.41
27984;BME280;15317;50.360;8.726;2023-06-14T05:10:48;99358.19;;;14.94;66.82
27984;BME280;15317;50.360;8.726;2023-06-14T05:15:53;99358.84;;;14.96;67.00
27984;BME280;15317;50.360;8.726;2023-06-14T05:20:57;99359.13;;;15.01;66.86
27984;BME280;15317;50.360;8.726;2023-06-14T05:26:00;99362.41;;;15.11;66.39
27984;BME280;15317;50.360;8.726;2023-06-14T05:31:06;99367.56;;;15.21;67.52
27984;BME280;15317;50.360;8.726;2023-06-14T05:36:09;99371.94;;;15.36;65.41
27984;BME280;15317;50.360;8.726;2023-06-14T05:41:12;99373.34;;;15.47;65.23
27984;BME280;15317;50.360;8.726;2023-06-14T05:46:17;99375.00;;;15.63;65.92
27984;BME280;15317;50.360;8.726;2023-06-14T05:51:24;99374.75;;;15.79;65.37
27984;BME280;15317;50.360;8.726;2023-06-14T05:56:28;99385.22;;;15.97;64.16
27984;BME280;15317;50.360;8.726;2023-06-14T06:01:32;99385.81;;;16.13;64.24
27984;BME280;15317;50.360;8.726;2023-06-14T06:06:38;99384.31;;;16.39;63.37
27984;BME280;15317;50.360;8.726;2023-06-14T06:11:41;99388.56;;;16.69;61.55
27984;BME280;15317;50.360;8.726;2023-06-14T06:16:55;99389.81;;;17.08;60.33
27984;BME280;15317;50.360;8.726;2023-06-14T06:21:58;99398.03;;;17.55;59.32
27984;BME280;15317;50.360;8.726;2023-06-14T06:27:02;99399.16;;;18.92;55.63
27984;BME280;15317;50.360;8.726;2023-06-14T06:32:07;99412.19;;;20.13;51.35
27984;BME280;15317;50.360;8.726;2023-06-14T06:37:10;99408.38;;;20.63;48.68
27984;BME280;15317;50.360;8.726;2023-06-14T06:42:14;99416.56;;;21.13;48.28
27984;BME280;15317;50.360;8.726;2023-06-14T06:47:19;99423.47;;;21.77;47.81
27984;BME280;15317;50.360;8.726;2023-06-14T06:52:22;99421.34;;;22.32;47.10
27984;BME280;15317;50.360;8.726;2023-06-14T06:57:25;99426.75;;;22.92;45.30
27984;BME280;15317;50.360;8.726;2023-06-14T07:02:29;99435.13;;;23.32;44.70
27984;BME280;15317;50.360;8.726;2023-06-14T07:07:34;99443.31;;;24.18;41.36
27984;BME280;15317;50.360;8.726;2023-06-14T07:12:37;99429.09;;;24.15;43.18
27984;BME280;15317;50.360;8.726;2023-06-14T07:17:43;99440.50;;;23.73;42.35
27984;BME280;15317;50.360;8.726;2023-06-14T07:22:46;99446.25;;;24.73;41.79
27984;BME280;15317;50.360;8.726;2023-06-14T07:27:49;99440.03;;;25.00;38.78
27984;BME280;15317;50.360;8.726;2023-06-14T07:32:54;99448.53;;;25.10;40.57
27984;BME280;15317;50.360;8.726;2023-06-14T07:37:57;99444.50;;;25.01;38.14
27984;BME280;15317;50.360;8.726;2023-06-14T07:43:00;99448.38;;;25.38;38.69
27984;BME280;15317;50.360;8.726;2023-06-14T07:48:05;99451.56;;;25.69;39.50
27984;BME280;15317;50.360;8.726;2023-06-14T07:53:09;99452.09;;;26.14;37.27
27984;BME280;15317;50.360;8.726;2023-06-14T07:58:12;99459.19;;;26.00;35.99
27984;BME280;15317;50.360;8.726;2023-06-14T08:03:16;99458.13;;;25.58;36.41
27984;BME280;15317;50.360;8.726;2023-06-14T11:06:13;99464.03;;;25.44;36.34
27984;BME280;15317;50.360;8.726;2023-06-14T11:11:17;99458.19;;;25.84;38.63
27984;BME280;15317;50.360;8.726;2023-06-14T11:16:25;99463.19;;;26.09;34.82
27984;BME280;15317;50.360;8.726;2023-06-14T11:21:32;99470.16;;;25.85;37.02
27984;BME280;15317;50.360;8.726;2023-06-14T11:26:37;99465.75;;;24.78;36.23
27984;BME280;15317;50.360;8.726;2023-06-14T11:31:43;99467.44;;;25.30;38.26
27984;BME280;15317;50.360;8.726;2023-06-14T11:36:48;99468.91;;;24.99;36.71
27984;BME280;15317;50.360;8.726;2023-06-14T11:41:51;99464.97;;;24.95;35.42
27984;BME280;15317;50.360;8.726;2023-06-14T11:46:54;99458.47;;;25.88;38.55
27984;BME280;15317;50.360;8.726;2023-06-14T11:52:00;99465.19;;;27.94;33.41
27984;BME280;15317;50.360;8.726;2023-06-14T11:57:05;99461.97;;;29.49;31.91
27984;BME280;15317;50.360;8.726;2023-06-14T12:02:09;99467.63;;;27.75;29.38
27984;BME280;15317;50.360;8.726;2023-06-14T12:07:15;99469.81;;;27.63;34.08
27984;BME280;15317;50.360;8.726;2023-06-14T12:12:20;99468.56;;;27.01;33.22
27984;BME280;15317;50.360;8.726;2023-06-14T12:17:24;99467.25;;;26.23;34.16
27984;BME280;15317;50.360;8.726;2023-06-14T12:22:31;99458.84;;;24.64;36.17
27984;BME280;15317;50.360;8.726;2023-06-14T12:27:35;99454.81;;;25.22;34.93
27984;BME280;15317;50.360;8.726;2023-06-14T12:32:38;99455.00;;;24.65;36.43
27984;BME280;15317;50.360;8.726;2023-06-14T12:37:43;99456.84;;;24.60;37.42
27984;BME280;15317;50.360;8.726;2023-06-14T12:42:47;99453.19;;;25.26;37.79
27984;BME280;15317;50.360;8.726;2023-06-14T12:47:50;99467.53;;;25.56;38.26
27984;BME280;15317;50.360;8.726;2023-06-14T12:52:55;99463.09;;;25.17;38.89
27984;BME280;15317;50.360;8.726;2023-06-14T12:57:58;99463.44;;;25.04;37.15
27984;BME280;15317;50.360;8.726;2023-06-14T13:03:01;99467.25;;;26.50;39.17
27984;BME280;15317;50.360;8.726;2023-06-14T13:08:06;99465.84;;;26.48;34.25
27984;BME280;15317;50.360;8.726;2023-06-14T13:13:10;99479.75;;;26.48;33.51
27984;BME280;15317;50.360;8.726;2023-06-14T13:18:14;99464.88;;;25.45;34.50
27984;BME280;15317;50.360;8.726;2023-06-14T13:23:18;99473.38;;;26.79;35.29
27984;BME280;15317;50.360;8.726;2023-06-14T13:28:22;99477.47;;;27.92;31.93
27984;BME280;15317;50.360;8.726;2023-06-14T13:33:25;99477.66;;;28.43;32.07
27984;BME280;15317;50.360;8.726;2023-06-14T13:38:30;99467.69;;;26.37;31.97
27984;BME280;15317;50.360;8.726;2023-06-14T13:43:33;99454.91;;;26.68;36.85
27984;BME280;15317;50.360;8.726;2023-06-14T13:48:37;99457.13;;;27.50;35.28
27984;BME280;15317;50.360;8.726;2023-06-14T13:53:41;99457.50;;;28.26;32.21
27984;BME280;15317;50.360;8.726;2023-06-14T13:58:45;99457.25;;;27.65;31.60
27984;BME280;15317;50.360;8.726;2023-06-14T14:03:49;99437.06;;;26.69;32.96
27984;BME280;15317;50.360;8.726;2023-06-14T14:08:53;99440.31;;;25.80;35.07
27984;BME280;15317;50.360;8.726;2023-06-14T14:13:57;99423.50;;;25.10;35.93
27984;BME280;15317;50.360;8.726;2023-06-14T14:19:01;99436.06;;;26.85;35.56
27984;BME280;15317;50.360;8.726;2023-06-14T14:24:07;99440.97;;;26.68;33.63
27984;BME280;15317;50.360;8.726;2023-06-14T14:29:10;99433.09;;;27.34;33.39
27984;BME280;15317;50.360;8.726;2023-06-14T14:34:13;99425.63;;;27.02;34.66
27984;BME280;15317;50.360;8.726;2023-06-14T14:39:18;99432.56;;;26.31;36.05
27984;BME280;15317;50.360;8.726;2023-06-14T14:44:21;99435.38;;;25.44;34.36
27984;BME280;15317;50.360;8.726;2023-06-14T14:49:24;99426.59;;;25.52;34.19
27984;BME280;15317;50.360;8.726;2023-06-14T14:54:29;99436.97;;;25.78;35.78
27984;BME280;15317;50.360;8.726;2023-06-14T14:59:33;99422.63;;;25.26;35.73
27984;BME280;15317;50.360;8.726;2023-06-14T15:04:36;99422.91;;;25.90;36.06
27984;BME280;15317;50.360;8.726;2023-06-14T15:09:40;99424.00;;;25.89;34.78
27984;BME280;15317;50.360;8.726;2023-06-14T15:14:44;99416.63;;;24.62;35.87
27984;BME280;15317;50.360;8.726;2023-06-14T15:19:48;99428.78;;;24.90;36.46
27984;BME280;15317;50.360;8.726;2023-06-14T15:24:52;99430.41;;;25.07;35.68
27984;BME280;15317;50.360;8.726;2023-06-14T15:29:56;99426.72;;;25.02;35.84
27984;BME280;15317;50.360;8.726;2023-06-14T15:34:59;99429.47;;;25.40;35.32
27984;BME280;15317;50.360;8.726;2023-06-14T15:40:05;99426.06;;;25.55;36.06
27984;BME280;15317;50.360;8.726;2023-06-14T15:45:09;99424.06;;;25.12;34.19
27984;BME280;15317;50.360;8.726;2023-06-14T15:50:13;99427.53;;;24.86;34.35
27984;BME280;15317;50.360;8.726;2023-06-14T15:55:18;99409.13;;;24.79;35.97
27984;BME280;15317;50.360;8.726;2023-06-14T16:00:21;99422.69;;;24.93;35.80
27984;BME280;15317;50.360;8.726;2023-06-14T16:05:27;99412.75;;;25.35;34.94
27984;BME280;15317;50.360;8.726;2023-06-14T16:10:31;99415.31;;;25.20;37.19
27984;BME280;15317;50.360;8.726;2023-06-14T16:15:34;99417.34;;;25.90;35.24
27984;BME280;15317;50.360;8.726;2023-06-14T16:20:37;99414.41;;;26.28;34.79
27984;BME280;15317;50.360;8.726;2023-06-14T16:25:42;99424.47;;;28.13;32.87
27984;BME280;15317;50.360;8.726;2023-06-14T16:30:45;99416.50;;;26.16;32.27
27984;BME280;15317;50.360;8.726;2023-06-14T16:35:49;99414.66;;;24.79;35.10
27984;BME280;15317;50.360;8.726;2023-06-14T16:40:53;99407.78;;;24.32;37.46
27984;BME280;15317;50.360;8.726;2023-06-14T16:45:56;99416.81;;;24.56;35.17
27984;BME280;15317;50.360;8.726;2023-06-14T16:51:00;99430.16;;;25.91;33.12
27984;BME280;15317;50.360;8.726;2023-06-14T16:56:04;99432.94;;;25.91;32.88
27984;BME280;15317;50.360;8.726;2023-06-14T17:01:08;99428.25;;;24.93;35.60
27984;BME280;15317;50.360;8.726;2023-06-14T17:06:11;99436.88;;;25.95;34.13
27984;BME280;15317;50.360;8.726;2023-06-14T17:11:16;99441.22;;;27.45;30.91
27984;BME280;15317;50.360;8.726;2023-06-14T17:16:20;99445.19;;;27.07;30.89
27984;BME280;15317;50.360;8.726;2023-06-14T17:21:24;99448.63;;;27.20;31.18
27984;BME280;15317;50.360;8.726;2023-06-14T17:26:29;99450.41;;;26.94;31.08
27984;BME280;15317;50.360;8.726;2023-06-14T17:31:34;99443.56;;;26.48;31.79
27984;BME280;15317;50.360;8.726;2023-06-14T17:36:37;99456.13;;;26.02;32.33
27984;BME280;15317;50.360;8.726;2023-06-14T17:41:41;99456.09;;;26.23;32.55
27984;BME280;15317;50.360;8.726;2023-06-14T17:46:44;99457.63;;;26.09;34.01
27984;BME280;15317;50.360;8.726;2023-06-14T17:51:48;99465.59;;;24.35;37.84
27984;BME280;15317;50.360;8.726;2023-06-14T17:56:53;99460.75;;;23.62;36.77
27984;BME280;15317;50.360;8.726;2023-06-14T18:01:56;99454.09;;;23.11;37.25
27984;BME280;15317;50.360;8.726;2023-06-14T18:07:01;99461.44;;;22.29;40.73
27984;BME280;15317;50.360;8.726;2023-06-14T18:12:06;99469.50;;;22.01;41.59
27984;BME280;15317;50.360;8.726;2023-06-14T18:17:11;99480.81;;;21.81;41.99
27984;BME280;15317;50.360;8.726;2023-06-14T18:22:14;99476.75;;;21.65;41.22
27984;BME280;15317;50.360;8.726;2023-06-14T18:27:19;99475.84;;;21.35;42.25
27984;BME280;15317;50.360;8.726;2023-06-14T18:32:22;99483.13;;;21.29;42.55
27984;BME280;15317;50.360;8.726;2023-06-14T18:37:25;99492.34;;;20.99;43.17
27984;BME280;15317;50.360;8.726;2023-06-14T18:42:31;99496.28;;;20.84;44.31
27984;BME280;15317;50.360;8.726;2023-06-14T18:47:34;99486.59;;;20.50;48.49
27984;BME280;15317;50.360;8.726;2023-06-14T18:52:38;99490.59;;;19.85;52.93
27984;BME280;15317;50.360;8.726;2023-06-14T18:57:42;99495.41;;;19.39;51.55
27984;BME280;15317;50.360;8.726;2023-06-14T19:02:45;99501.19;;;19.17;52.11
27984;BME280;15317;50.360;8.726;2023-06-14T19:07:49;99496.13;;;19.08;51.32
27984;BME280;15317;50.360;8.726;2023-06-14T19:12:53;99510.09;;;19.06;51.58
27984;BME280;15317;50.360;8.726;2023-06-14T19:17:58;99501.41;;;19.09;50.15
27984;BME280;15317;50.360;8.726;2023-06-14T19:23:02;99503.53;;;19.01;49.95
27984;BME280;15317;50.360;8.726;2023-06-14T19:28:08;99521.13;;;19.00;50.14
27984;BME280;15317;50.360;8.726;2023-06-14T19:33:11;99525.97;;;18.91;51.55
27984;BME280;15317;50.360;8.726;2023-06-14T19:38:15;99530.88;;;18.76;51.73
27984;BME280;15317;50.360;8.726;2023-06-14T19:43:19;99542.94;;;18.62;52.09
27984;BME280;15317;50.360;8.726;2023-06-14T19:48:23;99547.53;;;18.48;52.64
27984;BME280;15317;50.360;8.726;2023-06-14T19:53:27;99561.47;;;18.33;53.70
27984;BME280;15317;50.360;8.726;2023-06-14T19:58:31;99562.06;;;18.22;52.70
27984;BME280;15317;50.360;8.726;2023-06-14T20:03:34;99570.31;;;18.22;52.59
27984;BME280;15317;50.360;8.726;2023-06-14T20:08:38;99571.97;;;18.10;52.99
27984;BME280;15317;50.360;8.726;2023-06-14T20:13:43;99578.72;;;18.01;54.92
27984;BME280;15317;50.360;8.726;2023-06-14T20:18:46;99583.72;;;17.91;55.09
27984;BME280;15317;50.360;8.726;2023-06-14T20:23:49;99586.66;;;17.83;54.99
27984;BME280;15317;50.360;8.726;2023-06-14T20:28:54;99585.38;;;17.79;54.32
27984;BME280;15317;50.360;8.726;2023-06-14T20:33:57;99586.63;;;17.76;54.67
27984;BME280;15317;50.360;8.726;2023-06-14T20:39:01;99585.75;;;17.75;55.13
27984;BME280;15317;50.360;8.726;2023-06-14T20:44:06;99579.00;;;17.71;55.64
27984;BME280;15317;50.360;8.726;2023-06-14T20:49:11;99578.31;;;17.63;56.57
27984;BME280;15317;50.360;8.726;2023-06-14T20:54:14;99580.97;;;17.56;56.45
27984;BME280;15317;50.360;8.726;2023-06-14T20:59:19;99583.88;;;17.48;57.36
27984;BME280;15317;50.360;8.726;2023-06-14T21:04:22;99592.34;;;17.47;58.03
27984;BME280;15317;50.360;8.726;2023-06-14T21:09:25;99588.09;;;17.44;58.52
27984;BME280;15317;50.360;8.726;2023-06-14T21:14:29;99592.69;;;17.37;58.57
27984;BME280;15317;50.360;8.726;2023-06-14T21:19:32;99594.78;;;17.35;58.15
27984;BME280;15317;50.360;8.726;2023-06-14T21:24:36;99590.91;;;17.23;59.19
27984;BME280;15317;50.360;8.726;2023-06-14T21:29:40;99590.66;;;17.18;58.75
27984;BME280;15317;50.360;8.726;2023-06-14T21:34:44;99588.88;;;17.04;59.93
27984;BME280;15317;50.360;8.726;2023-06-14T21:39:47;99590.72;;;16.96;59.95
27984;BME280;15317;50.360;8.726;2023-06-14T21:44:52;99599.88;;;16.82;60.03
27984;BME280;15317;50.360;8.726;2023-06-14T21:49:57;99607.72;;;16.64;62.36
27984;BME280;15317;50.360;8.726;2023-06-14T21:55:00;99610.00;;;16.46;63.17
27984;BME280;15317;50.360;8.726;2023-06-14T22:00:06;99610.28;;;16.30;64.17
27984;BME280;15317;50.360;8.726;2023-06-14T22:05:12;99599.78;;;16.18;65.26
27984;BME280;15317;50.360;8.726;2023-06-14T22:10:16;99602.88;;;16.09;65.09
27984;BME280;15317;50.360;8.726;2023-06-14T22:15:22;99607.78;;;15.99;66.38
27984;BME280;15317;50.360;8.726;2023-06-14T22:20:26;99612.31;;;15.92;67.72
27984;BME280;15317;50.360;8.726;2023-06-14T22:25:31;99612.25;;;15.85;68.04
27984;BME280;15317;50.360;8.726;2023-06-14T22:30:35;99614.03;;;15.78;68.64
27984;BME280;15317;50.360;8.726;2023-06-14T22:35:39;99609.25;;;15.80;68.16
27984;BME280;15317;50.360;8.726;2023-06-14T22:40:42;99611.22;;;15.71;69.47
27984;BME280;15317;50.360;8.726;2023-06-14T22:45:47;99609.16;;;15.73;69.16
27984;BME280;15317;50.360;8.726;2023-06-14T22:50:53;99607.63;;;15.71;70.32
27984;BME280;15317;50.360;8.726;2023-06-14T22:55:56;99614.63;;;15.73;68.85
27984;BME280;15317;50.360;8.726;2023-06-14T23:01:01;99610.38;;;15.71;70.60
27984;BME280;15317;50.360;8.726;2023-06-14T23:06:05;99611.78;;;15.67;69.91
27984;BME280;15317;50.360;8.726;2023-06-14T23:11:09;99608.22;;;15.66;69.44
27984;BME280;15317;50.360;8.726;2023-06-14T23:16:16;99615.56;;;15.66;69.45
27984;BME280;15317;50.360;8.726;2023-06-14T23:21:21;99606.28;;;15.52;71.73
27984;BME280;15317;50.360;8.726;2023-06-14T23:26:24;99607.22;;;15.45;72.38
27984;BME280;15317;50.360;8.726;2023-06-14T23:31:31;99602.88;;;15.50;70.69
27984;BME280;15317;50.360;8.726;2023-06-14T23:36:35;99598.06;;;15.37;73.55
27984;BME280;15317;50.360;8.726;2023-06-14T23:41:38;99612.22;;;15.26;73.54
27984;BME280;15317;50.360;8.726;2023-06-14T23:46:44;99606.75;;;15.26;72.91
27984;BME280;15317;50.360;8.726;2023-06-14T23:51:47;99611.28;;;15.19;73.80
27984;BME280;15317;50.360;8.726;2023-06-14T23:56:50;99604.34;;;15.09;75.31
